Saturday, February 6, 2016, 2:07 AM EST

KUNV, State College, University Park Airport

Location: State College, PA, United States Lat: 40.85
Local Time: 2:07 AM EST ( 7:07 GMT) Lon: -77.85
Time Zone: US/Eastern Elev: 1240 ft

Show me the last for .
Show Decoded

2016-02-06 01:55 METAR KUNV 060655Z AUTO 25006KT 10SM CLR M05/M09 A3033 RMK AO2 T10501089 =
2016-02-06 01:35 METAR KUNV 060635Z AUTO 24006KT 10SM CLR M04/M09 A3032 RMK AO2 T10431091 =
2016-02-06 01:15 METAR KUNV 060615Z AUTO 20003KT 10SM CLR M04/M09 A3033 RMK AO2 T10451091 =
2016-02-06 00:55 METAR KUNV 060555Z AUTO 21003KT 10SM CLR M04/M09 A3033 RMK AO2 T10391092 11014
                 21046 =
2016-02-06 00:35 METAR KUNV 060535Z AUTO 00000KT 10SM CLR M04/M09 A3033 RMK AO2 T10411092 =
2016-02-06 00:15 METAR KUNV 060515Z AUTO 00000KT 10SM CLR M02/M09 A3033 RMK AO2 T10251093 =
2016-02-05 23:55 METAR KUNV 060455Z AUTO 23003KT 10SM CLR M02/M09 A3033 RMK AO2 T10231092 =
2016-02-05 23:35 METAR KUNV 060435Z AUTO 23004KT 10SM CLR M03/M09 A3034 RMK AO2 T10281091 =
2016-02-05 23:15 METAR KUNV 060415Z AUTO 23004KT 10SM CLR M03/M09 A3033 RMK AO2 T10351093 =
2016-02-05 22:55 METAR KUNV 060355Z AUTO 00000KT 10SM CLR M03/M09 A3033 RMK AO2 T10321090
                 400201038 =
2016-02-05 22:35 METAR KUNV 060335Z AUTO 14003KT 10SM CLR M03/M09 A3032 RMK AO2 T10341090 =
2016-02-05 22:15 METAR KUNV 060315Z AUTO 00000KT 10SM CLR M03/M09 A3033 RMK AO2 T10281090 =
2016-02-05 21:55 METAR KUNV 060255Z AUTO 27004KT 10SM CLR M02/M09 A3033 RMK AO2 T10251090 =
2016-02-05 20:53 METAR KUNV 060153Z 29006KT 10SM SKC M02/M09 A3033 =
2016-02-05 19:53 METAR KUNV 060053Z 28005KT 10SM SKC M02/M10 A3033 =
2016-02-05 18:53 METAR KUNV 052353Z 30005KT 10SM SKC M01/M09 A3033 =
2016-02-05 17:53 METAR KUNV 052253Z 29008KT 10SM SKC M01/M09 A3031 =
2016-02-05 16:53 METAR KUNV 052153Z 27015KT 10SM SCT049 00/M09 A3029 =
2016-02-05 15:53 METAR KUNV 052053Z 30009G19KT 10SM SCT080 01/M09 A3026 =
2016-02-05 14:53 METAR KUNV 051953Z 31009G14KT 10SM SCT047 02/M08 A3024 =
2016-02-05 13:53 METAR KUNV 051853Z 32009G15KT 10SM BKN041 01/M08 A3023 =
2016-02-05 12:53 METAR KUNV 051753Z 31010G19KT 10SM SCT030 SCT037 OVC045 00/M08 A3023 =
2016-02-05 11:53 METAR KUNV 051653Z 29011G17KT 10SM SCT013 BKN037 OVC055 00/M05 A3024 =
2016-02-05 10:53 METAR KUNV 051553Z 32007G17KT 10SM SCT018 BKN026 OVC039 00/M05 A3023 =
2016-02-05 09:53 METAR KUNV 051453Z 33015KT 10SM SCT070 01/M07 A3022 =
2016-02-05 08:53 METAR KUNV 051353Z 32012KT 10SM SCT030 BKN060 00/M06 A3019 =
2016-02-05 07:53 METAR KUNV 051253Z 32012KT 10SM SCT024 OVC060 00/M05 A3017 =
2016-02-05 06:53 METAR KUNV 051153Z 34008KT 7SM SCT028 OVC060 00/M05 A3019 =
2016-02-05 05:53 METAR KUNV 051053Z 33010KT 7SM -SN SCT036 OVC043 00/M05 A3013 =
2016-02-05 05:35 METAR KUNV 051035Z AUTO 34011G14KT 10SM -SN OVC043 00/M05 A3014 RMK AO2
                 T00031050 =
2016-02-05 05:15 METAR KUNV 051015Z AUTO 33009KT 10SM BKN045 OVC060 00/M05 A3013 RMK AO2
                 T00031046 =
2016-02-05 04:55 METAR KUNV 050955Z AUTO 34005KT 10SM SCT045 OVC050 01/M04 A3013 RMK AO2
                 T00051043 =
2016-02-05 04:35 METAR KUNV 050935Z AUTO 32006KT 10SM SCT042 SCT048 OVC050 01/M04 A3012 RMK AO2
                 T00051038 =
2016-02-05 04:15 METAR KUNV 050915Z AUTO 33008KT 10SM OVC046 01/M04 A3010 RMK AO2 T00061037 =
2016-02-05 03:55 METAR KUNV 050855Z AUTO 33006KT 10SM OVC044 01/M03 A3010 RMK AO2 T00071034 =
2016-02-05 03:35 METAR KUNV 050835Z AUTO 32005KT 10SM OVC044 01/M03 A3012 RMK AO2 T00081033 =
2016-02-05 03:15 METAR KUNV 050815Z AUTO 30004KT 10SM BKN048 OVC050 01/M03 A3013 RMK AO2
                 T00081033 =
2016-02-05 02:55 METAR KUNV 050755Z AUTO 33007KT 10SM BKN050 OVC110 01/M03 A3010 RMK AO2
                 T00091032 =
2016-02-05 02:35 METAR KUNV 050735Z AUTO 30003KT 10SM BKN060 OVC100 01/M03 A3012 RMK AO2
                 T00101033 =
2016-02-05 02:15 METAR KUNV 050715Z AUTO 30006KT 10SM OVC050 01/M03 A3010 RMK AO2 T00101033 =

Support USWX by starting your Amazon purchase here.